• 1
  • 2
  • 1

 

 

WebCam

  
Kamera Halle
Kamera Vorfeld
Wetter EDDS

METAR

EDDS 170620Z VRB02KT CAVOK 17/12 Q1015 NOSIG =
EDDS 170500Z 1706/1806 VRB03KT CAVOK BECMG 1710/1712 34006KT BECMG 1718/1721 VRB03KT


TAF

EDDS 170500Z 1706/1806 VRB03KT CAVOK BECMG 1710/1712 34006KT BECMG 1718/1721 VRB03KT =


SR/SS

03:36 / 19:18 UTC
(EDSO 17-07-2019)